Fuerte ingreso de aire frío en EEUU

Avatar de Usuario
Diecha
Mensajes: 4767
Registrado: Jue Ago 25, 2011 9:31 pm
Ubicación: Lomas de Zamora

Re: Fuerte ingreso de aire frío en EEUU

Mensajepor Diecha » Sab Feb 01, 2014 12:40 am

Diecha escribió:Temp. extremas en Crestview, Duke Field, Florida:

- 08/01: -10°C / 9°C
- 07/01: -9°C / -1°C
- 06/01: -6°C / 13°C *

* La temp. máx. se registró al comienzo del día, y la temp. mín. al final de éste. A las 16 hs local la temp. era 2°C.

SPOILER - El siguiente texto está oculto. Presioná en la barra para mostrarlo.
Imagen
Imagen


Buenas, dejo las temp. extremas que se registraron los últimos días en Crestview, Duke Field, Florida:

- 30/01: -9°C / 3°C
- 29/01: -8°C / -3°C
- 28/01: -4°C / 8°C

SPOILER - El siguiente texto está oculto. Presioná en la barra para mostrarlo.
- 30/1:

Imagen

- 29/1:

Imagen

- 28/1:

Imagen

- El día 28 registró débil lluvia/llovizna helada durante la tarde/noche, y el día 29 reportó débil nevada/lluvia helada durante la madrugada:

- 29/1, 02:54 hs local: KEGI 290854Z AUTO 00000KT 10SM -SN SCT012 SCT100 M05/M06 A3024 RMK AO2 RAE0849

- Por otra parte, en Brownsville, Texas (25.9°N de latitud y 7 msnm), llegó a llover con 0°C en la madrugada del día 29:

- 06:53 hs local: KBRO 291253Z 32010G20KT 10SM RA OVC042 01/M01 A3045 RMK AO2 SLP311 P0009 T00061011
- 03:53 hs local: KBRO 290953Z AUTO 33014G21KT 10SM -RA FEW010 OVC024 01/M01 A3041 RMK AO2 SLP297 P0004 T00061011 FZRANO
- 00:53 hs local: KBRO 290653Z AUTO 32013G20KT 10SM +RA OVC060 00/M02 A3043 RMK AO2 RAB0558 SLP301 P0003 T00001022 FZRANO

Imagen
Imagen
Imagen

Avatar de Usuario
jcvq
Mensajes: 2426
Registrado: Vie Abr 02, 2010 1:24 pm
Ubicación: Olivos - Pcia de Buenos Aires

Re: Fuerte ingreso de aire frío en EEUU

Mensajepor jcvq » Vie Feb 14, 2014 10:20 am

Este cuadro es muy bueno. Compara la nieve caída este año con respecto al promedio
1920269_523755041071191_2145605905_n.png
Saludos,
Julio

Avatar de Usuario
NicodWilde
Mensajes: 12980
Registrado: Mié Ago 01, 2012 7:34 pm
Ubicación: Wilde, Buenos Aires

Re: Fuerte ingreso de aire frío en EEUU

Mensajepor NicodWilde » Vie Feb 14, 2014 3:09 pm

Un aumento considerable!!! Ni hablar con respecto al invierno del año pasado que fue "flojo". Este en algunas zonas fue histórico por lo frío, en Chicago seguro.
mateix escribió:Para que te des una idea, defender al 2014 desde el punto de vista del frío sería como defender Pinochet, Videla, Hitler, Massera y Stalin juntos.


NICO.


Volver a “Seguimiento Internacional”

¿Quién está conectado?

Usuarios navegando por este Foro: No hay usuarios registrados visitando el Foro y 1 invitado